Tiempo atmosférico en la estación meteorológica de Pontevedra, Pontevedra (108 m.)



Fecha
DESCASC
Temp. máxima en grados centígrados (hora)
DESCASC
Temp. mínima en grados centígrados (hora)
DESCASC
Temp. media en grados centígrados
DESCASC
Racha de viento máxima en m/sg (hora)
DESCASC
Velocidad máxima media en intervalos de 10 minutos(hora)
DESCASC
Precipitaciones diarias en mm
DESCASC
Precipitaciones de 00:00 a 06:00 en mm
DESCASC
Precipitaciones de 06:00 a 12:00 en mm
DESCASC
Precipitaciones de 12:00 a 18:00 en mm
DESCASC
Precipitaciones de 18:00 a 24:00 en mm
DESCASC
13-10-2019 17.6 (01:10) 12.9 (23:20) 15.3 14.17 (05:40) 6.39 (06:00) 28 8.8 4.4 3.2 11.6
12-10-2019 19.6 (14:50) 12.5 (02:00) 16.1 9.44 (23:59) 4.17 (23:59) 0 0 0 0 0
10-10-2019 23.9 (18:20) 10.2 (00:00) 17 7.22 (15:20) 3.89 (15:20) 0.2 0 0 0 0.2
09-10-2019 20.8 (17:40) 10.2 (00:00) 15.5 6.67 (16:10) 4.17 (17:40) 0 0 0 0 0
08-10-2019 19.2 (13:30) 13.3 (00:00) 16.3 6.94 (17:50) 3.89 (18:20) 4.2 0 1.4 2.8 0
07-10-2019 23.3 (17:40) 11.1 (00:00) 17.2 5.28 (09:50) 3.33 (03:30) 0 0 0 0 0
06-10-2019 23.3 (16:30) 13.5 (00:00) 18.4 4.72 (17:00) 3.06 (01:00) 0 0 0 0 0
05-10-2019 20.9 (15:20) 12 (03:50) 16.4 6.11 (17:20) 3.33 (17:20) 0 0 0 0 0
04-10-2019 20.9 (14:00) 13.4 (00:00) 17.1 5 (05:10) 3.06 (16:20) 1 1 0 0 0
03-10-2019 19.6 (17:40) 10 (00:00) 14.8 4.72 (06:10) 3.33 (00:30) 4.6 0 0 0 4.6
02-10-2019 20.5 (17:10) 13.3 (00:00) 16.9 4.72 (15:40) 2.78 (13:30) 0 0 0 0 0
01-10-2019 20.8 (15:50) 16.1 (00:00) 18.4 8.33 (16:20) 4.72 (14:30) 5 4.8 0.2 0 0
30-09-2019 20.3 (18:20) 17.9 (00:00) 19.1 6.67 (14:10) 3.33 (14:10) 3.6 2.2 1.2 0.2 0
29-09-2019 18.5 (16:50) 12 (00:00) 15.3 3.61 (01:20) 2.5 (01:10) 21.4 0 0.8 11.8 8.8
28-09-2019 20.9 (16:40) 10.1 (00:00) 15.5 6.11 (16:50) 3.89 (06:30) 0 0 0 0 0
27-09-2019 20.2 (18:30) 14 (00:00) 17.1 6.11 (16:00) 3.89 (16:00) 11.4 0 11 0.4 0
26-09-2019 21.3 (17:00) 14.8 (00:00) 18 8.33 (15:50) 4.44 (16:00) 0 0 0 0 0
25-09-2019 20.2 (16:10) 14.6 (00:00) 17.4 7.78 (17:40) 4.72 (17:40) 1 0.4 0.6 0 0
24-09-2019 20.3 (17:40) 15.3 (00:00) 17.8 13.06 (00:50) 6.39 (05:00) 25 24.4 0.6 0 0
23-09-2019 20 (16:00) 15 (00:00) 17.5 13.61 (23:50) 5.83 (23:50) 0 0 0 0 0
22-09-2019 20.2 (16:20) 14.1 (00:00) 17.2 10.28 (17:20) 6.11 (17:20) 0.6 0.4 0.2 0 0
21-09-2019 18.4 (05:40) 15 (00:00) 16.7 10.28 (15:50) 5.28 (15:50) 19.6 0 6.2 12.6 0.8
20-09-2019 20.7 (16:20) 14.9 (00:00) 17.8 6.67 (19:00) 3.61 (19:00) 0.2 0 0.2 0 0
19-09-2019 21.7 (15:30) 13.8 (00:00) 17.8 7.22 (17:30) 3.89 (17:10) 0 0 0 0 0
18-09-2019 24.1 (15:50) 14.9 (00:00) 19.5 7.22 (18:40) 3.33 (18:00) 0 0 0 0 0
17-09-2019 24.8 (12:30) 16.8 (00:00) 20.8 6.94 (15:10) 3.61 (15:10) 0 0 0 0 0
16-09-2019 26.7 (13:10) 16.7 (00:00) 21.7 7.78 (16:00) 3.89 (16:00) 0 0 0 0 0

Gráficas

Temp. máximas Temp. mínimas Temp. medias Precipitaciones Rachas de viento máximas Velocidades máximas media en intervalos de 10 minutos

Datos horarios

Fecha y hora oficial Temperatura (ºC) Velocidad del viento (km/h) Dirección del viento Racha (km/h) Dirección de racha Precipitación (mm) Presión (hPa) Tendencia (hPa) Humedad (%)
2019-10-15 23:00:00 15 16 Sur 34 Sur 0.2 1003 -0.2 86
2019-10-15 22:00:00 15 12 Sur 34 Sur 0 1003 -0.4 84
2019-10-15 21:00:00 15.1 13 Sur 36 Sur 0 1003.3 0 83
2019-10-15 20:00:00 15.2 16 Sur 39 Sur 0 1003.2 -0.3 82
2019-10-15 19:00:00 14.9 14 Sur 32 Sur 0.2 1003.4 -0.4 88
2019-10-15 18:00:00 15.7 14 Sur 40 Sur 0 1003.3 -1 81
2019-10-15 17:00:00 16.2 19 Sur 36 Sur 0 1003.5 -1.2 72
2019-10-15 16:00:00 16.2 15 Sur 34 Sur 0 1003.8 -1.2 79
2019-10-15 15:00:00 16.2 15 Sur 33 Sudeste 0 1004.3 -0.9 75
2019-10-15 14:00:00 15.2 16 Sur 35 Sur 0 1004.7 -0.9 79
2019-10-15 13:00:00 15.2 13 Sur 28 Sur 0 1005 -0.4 80
2019-10-15 12:00:00 13.7 11 Sur 22 Sudeste 0 1005.2 0.2 89
2019-10-15 11:00:00 12.7 2 Norte 10 Sudeste 0.2 1005.6 0.7 96
2019-10-15 10:00:00 10.8 4 Norte 7 Sudeste 0 1005.4 0.4 98
2019-10-15 09:00:00 10 4 Este 9 Norte 1.4 1005 0 98
2019-10-15 08:00:00 9.7 5 Nordeste 8 Norte 0 1004.9 0 98
2019-10-15 07:00:00 9.3 5 Nordeste 7 Norte 0 1005 0 98
2019-10-15 06:00:00 9.5 4 Nordeste 8 Nordeste 0 1005 0 98
2019-10-15 05:00:00 9.3 5 Nordeste 8 Norte 0 1004.9 -0.1 98
2019-10-15 04:00:00 10.1 3 Norte 12 Este 0.8 1005 0.2 96
2019-10-15 03:00:00 10.1 5 Nordeste 7 Este 0 1005 0.5 95
2019-10-15 02:00:00 10.2 3 Nordeste 6 Este 0 1005 1 94
2019-10-15 01:00:00 10.3 2 Nordeste 10 Sur 0 1004.8 1.4 95
2019-10-15 00:00:00 10.4 5 Sudeste 8 Sudeste 0 1004.5 1.4 95
2019-10-14 23:00:00 10.6 8 Este 15 Norte 0 1004 1.5 94
2019-10-14 22:00:00 11 0 Calma 7 Sudoeste 0 1003.4 1.7 91
2019-10-14 21:00:00 11.9 6 Sur 16 Sudoeste 0 1003.1 2.3 87
2019-10-14 20:00:00 12.3 6 Sudoeste 15 Sudoeste 0 1002.5 2.7 86
2019-10-14 19:00:00 13.1 11 Oeste 22 Oeste 0.8 1001.7 3 82
2019-10-14 18:00:00 14.4 8 Sur 43 Oeste 0.8 1000.8 2.3 76
2019-10-14 17:00:00 14.9 18 Oeste 34 Sudoeste 0 999.8 1.9 59
2019-10-14 16:00:00 15.5 16 Sudoeste 39 Sudoeste 0 998.7 1.6 62
2019-10-14 15:00:00 14.4 12 Sudoeste 31 Oeste 0 998.5 2.9 75
2019-10-14 14:00:00 14.4 13 Oeste 27 Oeste 0 997.9 3.2 75
2019-10-14 13:00:00 12.5 8 Sur 38 Sudoeste 6 997.1 2.8 94
2019-10-14 12:00:00 14.4 10 Sur 28 Sur 0.2 995.6 2.1 91
2019-10-14 11:00:00 13.3 9 Sur 21 Sur 0.2 994.7 2.2 94
2019-10-14 10:00:00 12.4 9 Sur 18 Sudoeste 2.6 994.3 1.6 97
2019-10-14 09:00:00 12.3 5 Oeste 21 Sur 11.4 993.5 0.4 98
2019-10-14 08:00:00 12.6 6 Sur 23 Sudeste 4 992.5 -1 95
2019-10-14 07:00:00 12.7 5 Sudeste 21 Sudeste 0 992.7 -1.2 92
2019-10-14 06:00:00 12.4 3 Oeste 10 Sudeste 0 993.1 -1.9 97
2019-10-14 05:00:00 12.4 4 Sur 10 Sudoeste 0 993.5 -1.5 97
2019-10-14 04:00:00 12.4 4 Sudeste 13 Sur 0 993.9 -1.9 97
2019-10-14 03:00:00 12.4 4 Sudoeste 9 Sudoeste 1.4 995 -1 98
2019-10-14 02:00:00 12.5 2 Sudeste 5 Norte 2 995 -1.1 97
2019-10-14 01:00:00 12.7 3 Sudeste 10 Nordeste 1.8 995.8 -0.7 98
2019-10-14 00:00:00 12.9 5 Sudeste 17 Nordeste 2.2 996 -0.7 97
2019-10-13 23:00:00 13 4 Nordeste 11 Este 2.2 996.1 -0.3 97
2019-10-13 22:00:00 13.2 4 Sur 11 Nordeste 3.6 996.5 0 98
2019-10-13 21:00:00 13.4 4 Sudeste 8 Sudeste 1.8 996.7 0.4 97
2019-10-13 20:00:00 13.6 3 Sudeste 11 Sudoeste 1.4 996.4 -0.6 96
2019-10-13 19:00:00 13.9 6 Sudoeste 17 Sudoeste 0.4 996.5 -0.5 96
2019-10-13 18:00:00 15.2 6 Sudoeste 11 Sudoeste 1.2 996.3 -0.8 97
2019-10-13 17:00:00 15.3 4 Sudoeste 15 Sudoeste 1.2 997 -0.5 95
2019-10-13 16:00:00 15.8 6 Sudoeste 8 Sudoeste 0.4 997 -0.8 92
2019-10-13 15:00:00 16 3 Sudoeste 8 Sudoeste 0.4 997.1 -0.6 89
2019-10-13 14:00:00 16.4 4 Sudoeste 9 Sudoeste 0 997.5 0 86
2019-10-13 13:00:00 16.5 5 Sudoeste 9 Sudoeste 0 997.8 1.1 87
2019-10-13 12:00:00 16.1 6 Oeste 10 Oeste 0 997.7 1.8 89
2019-10-13 11:00:00 15.6 4 Sur 11 Sudoeste 0 997.5 2.4 96
2019-10-13 10:00:00 14.8 5 Sur 12 Sur 0 996.7 3.1 98
2019-10-13 09:00:00 14.8 8 Sudoeste 26 Sudoeste 0.4 995.9 3.4 98
2019-10-13 08:00:00 16 12 Sudoeste 41 Sur 0.2 995.1 2 94
2019-10-13 07:00:00 16.2 15 Sur 46 Sur 3.8 993.6 -0.3 97
2019-10-13 06:00:00 15.9 23 Sudeste 51 Sudeste 6.2 992.5 -2.3 96
2019-10-13 05:00:00 16.1 18 Sur 50 Sur 2.6 993.1 -1.9 93
2019-10-13 04:00:00 17.3 18 Sudeste 45 Sudeste 0 993.9 -1.4 81
2019-10-13 03:00:00 17.3 19 Sur 42 Sur 0 994.8 -0.9 81
2019-10-13 02:00:00 17.4 19 Sur 41 Sur 0 995 -0.9 78
2019-10-13 01:00:00 17.5 17 Sur 44 Sur 0 995.3 -0.8 76
2019-10-13 00:00:00 17.2 15 Sur 34 Sur 0 995.7 -0.7 77
2019-10-12 23:00:00 17.2 10 Sur 22 Sur 0 995.9 -0.4 76
2019-10-12 22:00:00 17.1 8 Sur 23 Sur 0 996.1 -0.4 78
2019-10-12 21:00:00 17.2 11 Sur 24 Sur 0 996.4 0 76
2019-10-12 20:00:00 17.9 10 Sur 22 Sur 0 996.3 -0.3 77
2019-10-12 19:00:00 18.6 12 Sudoeste 28 Sudoeste 0 996.5 -0.2 75
2019-10-12 18:00:00 19 12 Sudoeste 27 Sudoeste 0 996.4 -0.9 75
2019-10-12 17:00:00 19.4 10 Sudoeste 22 Sudoeste 0 996.6 -1.3 74
2019-10-12 16:00:00 19.2 11 Sur 22 Sur 0 996.7 -1.6 76
2019-10-12 15:00:00 19.6 7 Sur 20 Sur 0 997.3 -1.5 75
2019-10-12 14:00:00 18.8 12 Sur 21 Sur 0 997.9 -0.8 75
2019-10-12 13:00:00 18.4 6 Sur 14 Sur 0 998.3 -0.5 76
2019-10-12 12:00:00 17.4 6 Sudeste 16 Sudeste 0 998.8 0.3 81
2019-10-12 11:00:00 16.4 11 Sudeste 18 Sudeste 0 998.7 0.2 82
2019-10-12 10:00:00 15.8 8 Sudeste 16 Sur 0 998.8 0.3 85
2019-10-12 09:00:00 15.5 9 Sudeste 17 Sudeste 0 998.5 -0.3 85
2019-10-12 08:00:00 15.2 7 Sudeste 13 Sudeste 0 998.5 -0.6 87
2019-10-12 07:00:00 15.1 6 Sudeste 17 Sudeste 0 998.5 -1.2 89
2019-10-12 06:00:00 13.9 3 Norte 6 Nordeste 0 998.8 -1.6 92
2019-10-12 05:00:00 13.5 2 Norte 5 Este 0 999.1 -1.7 93
2019-10-12 04:00:00 13.2 2 Este 6 Este 0 999.7 -1.6 95
2019-10-12 03:00:00 12.9 3 Nordeste 7 Este 0 1000.4 -1 95
2019-10-12 02:00:00 12.5 0 Calma 7 Este 0 1000.8 -0.8 94
2019-10-12 01:00:00 13.1 3 Este 5 Este 0 1001.3 -0.2 94
2019-10-12 00:00:00 13.3 2 Sur 10 Este 0 1001.4 0.1 92
2019-10-11 23:00:00 13.9 5 Este 6 Este 0 1001.6 0.4 91
2019-10-11 22:00:00 14.6 2 Este 5 Sur 0 1001.5 0.1 89
2019-10-11 21:00:00 15.2 3 Sudeste 11 Sur 0 1001.3 -0.2 86
2019-10-11 20:00:00 16.8 4 Sur 20 Sudoeste 0 1001.2 -0.5 80
2019-10-11 19:00:00 18.4 8 Sudoeste 21 Sudoeste 0 1001.4 -0.6 73
2019-10-11 18:00:00 19.6 9 Sudoeste 18 Sudoeste 0 1001.5 -1 68
2019-10-11 17:00:00 19.5 10 Sudoeste 21 Sudoeste 0 1001.7 -1.6 69
2019-10-11 16:00:00 19.3 9 Sudoeste 20 Sudoeste 0 1002 -1.7 75
2019-10-11 15:00:00 19 9 Sudoeste 17 Sudoeste 0 1002.5 -1.4 77
2019-10-11 14:00:00 17.6 10 Sudoeste 17 Sur 0 1003.3 -0.9 78
2019-10-11 13:00:00 17.8 6 Sudoeste 13 Sudoeste 0 1003.7 -0.3 78
2019-10-11 12:00:00 16.5 5 Sur 10 Sur 0 1003.9 0.3 79
2019-10-11 11:00:00 14.8 2 Sudoeste 8 Nordeste 0 1004.2 1 81
2019-10-11 10:00:00 11.7 0 Calma 10 Este 0 1004 0.9 89
2019-10-11 09:00:00 11.2 5 Nordeste 16 Nordeste 0 1003.6 0.6 87
2019-10-11 08:00:00 12 9 Nordeste 11 Este 0 1003.2 0.2 85
2019-10-11 07:00:00 11.6 6 Nordeste 15 Nordeste 0 1003.1 -0.3 86
2019-10-11 06:00:00 12 4 Este 17 Este 0 1003 -0.7 85
2019-10-11 05:00:00 12.3 6 Nordeste 13 Nordeste 0 1003 -0.7 84
2019-10-11 04:00:00 12.9 9 Nordeste 20 Nordeste 0 1003.4 -0.7 81
2019-10-11 03:00:00 12.7 4 Este 20 Nordeste 0 1003.7 -0.5 85
2019-10-11 02:00:00 12.6 7 Nordeste 13 Nordeste 0 1003.7 -0.7 88
2019-10-11 01:00:00 14.1 4 Nordeste 11 Este 0 1004.1 0 84
2019-10-11 00:00:00 14.3 5 Nordeste 13 Este 0 1004.2 0.1 86
2019-10-10 23:00:00 16.1 6 Este 11 Este 0 1004.4 0.6 82
2019-10-10 22:00:00 16.8 8 Nordeste 11 Este 0 1004.1 0.3 81
2019-10-10 21:00:00 17.5 2 Este 9 Sur 0 1004.1 0.1 80
2019-10-10 20:00:00 20 4 Sur 11 Sudoeste 0 1003.8 -0.8 70
2019-10-10 19:00:00 23.1 6 Sudoeste 12 Sudoeste 0.2 1003.8 -1.1 53
2019-10-10 18:00:00 23.7 9 Oeste 19 Oeste 0 1004 -1.5 51
2019-10-10 17:00:00 23.6 11 Oeste 21 Oeste 0 1004.6 -1.7 52
2019-10-10 16:00:00 22.9 11 Oeste 26 Noroeste 0 1004.9 -2.1 54
2019-10-10 15:00:00 22.1 14 Oeste 24 Oeste 0 1005.5 -2 58
2019-10-10 14:00:00 22.5 7 Norte 16 Nordeste 0 1006.3 -1.8 47
2019-10-10 13:00:00 20.7 8 Norte 22 Norte 0 1007 -1.1 51
2019-10-10 12:00:00 17.3 5 Noroeste 15 Norte 0 1007.5 -0.2 66
2019-10-10 11:00:00 13.6 3 Sur 5 Noroeste 0 1008.1 0.4 80
2019-10-10 10:00:00 11.2 3 Sudeste 7 Nordeste 0 1008.1 0.6 89
2019-10-10 09:00:00 10.9 5 Nordeste 9 Nordeste 0 1007.7 0.1 85
2019-10-10 08:00:00 11.3 0 Calma 12 Este 0 1007.7 -0.3 83
2019-10-10 07:00:00 11.3 3 Este 12 Noroeste 0 1007.5 -1.1 82
2019-10-10 06:00:00 11.6 6 Norte 18 Nordeste 0 1007.6 -1.2 80
2019-10-10 05:00:00 12 13 Nordeste 21 Nordeste 0 1008 -1.1 82
2019-10-10 04:00:00 11.8 7 Norte 13 Norte 0 1008.6 -0.9 84
2019-10-10 03:00:00 11.8 5 Norte 13 Norte 0 1008.8 -0.9 84
2019-10-10 02:00:00 11.9 6 Norte 13 Nordeste 0 1009.1 -0.5 85
2019-10-10 01:00:00 12.4 6 Nordeste 11 Nordeste 0 1009.5 0 84
2019-10-10 00:00:00 13.1 5 Nordeste 13 Norte 0 1009.7 0.6 83
2019-10-09 23:00:00 13.5 4 Nordeste 11 Nordeste 0 1009.6 0.9 80
2019-10-09 22:00:00 14.4 6 Nordeste 12 Norte 0 1009.5 1 76
2019-10-09 21:00:00 15.2 4 Nordeste 12 Noroeste 0 1009.1 0.8 73
2019-10-09 20:00:00 17.2 6 Norte 16 Noroeste 0 1008.7 0.1 66
2019-10-09 19:00:00 19.2 10 Noroeste 20 Noroeste 0 1008.5 -0.6 56
2019-10-09 18:00:00 19.7 11 Noroeste 24 Norte 0 1008.3 -0.9 54
2019-10-09 17:00:00 20 14 Noroeste 24 Noroeste 0 1008.6 -1 53
2019-10-09 16:00:00 19.9 12 Norte 24 Norte 0 1009.1 -0.8 53
2019-10-09 15:00:00 19.2 12 Noroeste 22 Norte 0 1009.2 -0.9 55
2019-10-09 14:00:00 18.3 8 Noroeste 19 Noroeste 0 1009.6 -0.6 64
2019-10-09 13:00:00 16.2 6 Noroeste 15 Norte 0 1009.9 0.1 75
2019-10-09 12:00:00 16.1 6 Noroeste 9 Noroeste 0 1010.1 0.8 79
2019-10-09 11:00:00 13.2 3 Norte 9 Este 0 1010.2 1.2 92
2019-10-09 10:00:00 11.5 3 Nordeste 10 Nordeste 0 1009.8 1.2 92
2019-10-09 09:00:00 10.7 3 Nordeste 8 Este 0 1009.3 0.5 96
2019-10-09 08:00:00 10.5 6 Este 12 Nordeste 0 1009 0.3 95
2019-10-09 07:00:00 10.6 6 Este 14 Este 0 1008.6 -0.1 94
2019-10-09 06:00:00 11 8 Nordeste 16 Este 0 1008.8 -0.1 94
2019-10-09 05:00:00 10.9 7 Nordeste 13 Nordeste 0 1008.7 0.1 93
2019-10-09 04:00:00 11.5 5 Este 12 Este 0 1008.7 0 93
2019-10-09 03:00:00 11.7 9 Este 10 Nordeste 0 1008.9 0.3 93
2019-10-09 02:00:00 11.9 6 Nordeste 11 Nordeste 0 1008.6 0.1 93
2019-10-09 01:00:00 12.4 7 Este 10 Nordeste 0 1008.7 0.7 91
2019-10-09 00:00:00 13.3 3 Norte 11 Norte 0 1008.6 1 87
2019-10-08 23:00:00 14.1 3 Noroeste 18 Nordeste 0 1008.5 1.6 82
2019-10-08 22:00:00 15 5 Norte 13 Noroeste 0 1008 1.4 81
2019-10-08 21:00:00 16.2 5 Norte 15 Norte 0 1007.6 1.3 81
2019-10-08 20:00:00 16.4 5 Nordeste 17 Nordeste 0 1006.9 0.7 83
2019-10-08 19:00:00 16.5 9 Noroeste 22 Noroeste 0 1006.6 0.5 88
2019-10-08 18:00:00 17.7 13 Noroeste 25 Noroeste 0 1006.3 0.2 89
2019-10-08 17:00:00 18.4 4 Este 12 Noroeste 0 1006.2 0 87
2019-10-08 16:00:00 18 7 Noroeste 17 Noroeste 0 1006.1 0 90
2019-10-08 15:00:00 18.5 12 Noroeste 19 Noroeste 0 1006.1 -0.2 94
2019-10-08 14:00:00 18.4 9 Oeste 17 Oeste 1.4 1006.2 0 97
2019-10-08 13:00:00 18.9 4 Sudoeste 12 Sudoeste 1.4 1006.1 0.4 98
2019-10-08 12:00:00 18.5 2 Noroeste 8 Sudeste 0.8 1006.3 0.9 97
2019-10-08 11:00:00 17.8 3 Sur 6 Sur 0.6 1006.2 0.8 96
2019-10-08 10:00:00 17.7 2 Este 5 Sudeste 0 1005.7 0.4 95
2019-10-08 09:00:00 17.6 3 Sudeste 8 Sur 0 1005.4 0.2 94
2019-10-08 08:00:00 17.7 5 Sudeste 9 Sudeste 0 1005.4 -0.1 94
2019-10-08 07:00:00 17.6 4 Norte 9 Este 0 1005.3 -0.6 94
2019-10-08 06:00:00 17 3 Nordeste 14 Nordeste 0 1005.2 -1.3 95
2019-10-08 05:00:00 16.7 5 Este 14 Este 0 1005.5 -0.9 95
2019-10-08 04:00:00 17.1 4 Este 5 Este 0 1005.9 -0.9 95
2019-10-08 03:00:00 17.1 4 Noroeste 11 Este 0 1006.5 -0.6 94
2019-10-08 02:00:00 17.2 4 Nordeste 7 Nordeste 0 1006.4 -1 96
2019-10-08 01:00:00 17.2 2 Norte 8 Este 0 1006.8 -0.3 96
2019-10-08 00:00:00 17.3 3 Nordeste 7 Nordeste 0 1007.1 0.3 96
2019-10-07 23:00:00 17.7 3 Este 6 Este 0 1007.4 0.8 95
2019-10-07 22:00:00 17.8 0 Calma 9 Sudoeste 0 1007.1 0.5 95
2019-10-07 21:00:00 17.9 5 Sudoeste 10 Sur 0 1006.8 0.3 92
2019-10-07 20:00:00 19.3 7 Sudoeste 17 Sudoeste 0 1006.6 -0.2 85
2019-10-07 19:00:00 21.7 9 Sudoeste 17 Sudoeste 0 1006.6 -0.4 75
2019-10-07 18:00:00 22.7 6 Sudoeste 17 Sur 0 1006.5 -0.9 66
2019-10-07 17:00:00 22.9 8 Sudoeste 19 Sudoeste 0 1006.8 -1.3 58
2019-10-07 16:00:00 22.8 7 Sudoeste 16 Sudoeste 0 1007 -1.1 62
2019-10-07 15:00:00 22 9 Sudoeste 15 Sudoeste 0 1007.4 -0.4 66
2019-10-07 14:00:00 21.2 7 Sudoeste 14 Sudoeste 0 1008.1 0.3 72
2019-10-07 13:00:00 20 5 Oeste 9 Sudoeste 0 1008.1 0 69
2019-10-07 12:00:00 17.9 3 Sudoeste 7 Este 0 1007.8 0 78
2019-10-07 11:00:00 15.7 4 Este 11 Nordeste 0 1007.8 -0.1 80
2019-10-07 10:00:00 12.8 8 Nordeste 19 Nordeste 0 1008.1 0.5 85
2019-10-07 09:00:00 11.7 9 Este 19 Este 0 1007.8 0.6 89
2019-10-07 08:00:00 11.4 8 Nordeste 16 Nordeste 0 1007.9 0.7 91
2019-10-07 07:00:00 11.8 4 Este 18 Nordeste 0 1007.6 0.2 91
2019-10-07 06:00:00 11.8 5 Este 18 Nordeste 0 1007.2 -0.7 90
2019-10-07 05:00:00 12.4 8 Nordeste 17 Nordeste 0 1007.2 -0.7 90
2019-10-07 04:00:00 13.1 9 Este 19 Nordeste 0 1007.4 -1 91
2019-10-07 03:00:00 13.4 9 Nordeste 14 Nordeste 0 1007.9 -0.6 92
2019-10-07 02:00:00 14.1 10 Este 15 Este 0 1007.9 -0.7 93
2019-10-07 01:00:00 14.4 8 Nordeste 12 Nordeste 0 1008.4 -0.3 94
2019-10-07 00:00:00 14.9 0 Calma 12 Nordeste 0 1008.5 -0.1 92
2019-10-06 23:00:00 15.3 2 Este 8 Este 0 1008.6 0.3 90
2019-10-06 22:00:00 15.9 4 Este 6 Oeste 0 1008.7 0.8 89
2019-10-06 21:00:00 16.8 3 Sudoeste 11 Sudoeste 0 1008.6 1.1 84
2019-10-06 20:00:00 18.4 5 Sudoeste 14 Sudoeste 0 1008.3 0.7 78
2019-10-06 19:00:00 20 7 Sudoeste 17 Sudoeste 0 1007.9 0 73
2019-10-06 18:00:00 21.9 7 Oeste 15 Sudoeste 0 1007.5 -0.8 68
2019-10-06 17:00:00 22.7 10 Sudoeste 17 Sudoeste 0 1007.6 -1.5 66
2019-10-06 16:00:00 22.7 5 Sudoeste 17 Oeste 0 1007.9 -1.1 61
2019-10-06 15:00:00 21.5 3 Noroeste 10 Noroeste 0 1008.3 -1 68
2019-10-06 14:00:00 19.6 5 Noroeste 13 Noroeste 0 1009.1 -0.1 75
2019-10-06 13:00:00 18.6 3 Sur 8 Sudoeste 0 1009 0.3 80
2019-10-06 12:00:00 17 2 Oeste 4 Sur 0 1009.3 1.5 91
2019-10-06 11:00:00 15.9 2 Noroeste 7 Este 0 1009.2 1.8 94
2019-10-06 10:00:00 15.1 4 Este 9 Este 0 1008.7 1.6 95
2019-10-06 09:00:00 14.5 4 Nordeste 9 Nordeste 0 1007.8 0.5 96
2019-10-06 08:00:00 14.2 0 Calma 12 Este 0 1007.4 0.4 96
2019-10-06 07:00:00 14 7 Nordeste 11 Nordeste 0 1007.1 -0.1 95
2019-10-06 06:00:00 14.1 8 Este 14 Nordeste 0 1007.3 -0.3 93
2019-10-06 05:00:00 14.3 4 Nordeste 13 Nordeste 0 1007 -0.7 88
2019-10-06 04:00:00 13.9 3 Nordeste 10 Nordeste 0 1007.2 -0.7 89
2019-10-06 03:00:00 13.6 3 Sudeste 11 Nordeste 0 1007.6 -0.4 89
2019-10-06 02:00:00 13.9 7 Nordeste 14 Nordeste 0 1007.7 0.2 88
2019-10-06 01:00:00 14 11 Nordeste 16 Este 0 1007.9 0.6 89
2019-10-06 00:00:00 14.1 9 Este 14 Este 0 1008 0.9 90
2019-10-05 23:00:00 14.4 7 Nordeste 12 Este 0 1007.5 1.2 87
2019-10-05 22:00:00 14.9 3 Este 8 Sudoeste 0 1007.3 1.3 87
2019-10-05 21:00:00 16 4 Oeste 10 Oeste 0 1007.1 1.6 81
2019-10-05 20:00:00 17.8 2 Sur 17 Sudoeste 0 1006.3 0.9 74
2019-10-05 19:00:00 18.2 7 Oeste 13 Sudoeste 0 1006 0.5 74
2019-10-05 18:00:00 18.9 9 Sudoeste 22 Sudoeste 0 1005.5 -0.1 72
2019-10-05 17:00:00 20 8 Oeste 16 Norte 0 1005.4 -0.6 64
2019-10-05 16:00:00 19.6 6 Oeste 18 Oeste 0 1005.5 -0.5 61
2019-10-05 15:00:00 20.4 6 Oeste 15 Sudoeste 0 1005.6 -0.5 60
2019-10-05 14:00:00 19.6 8 Oeste 15 Oeste 0 1006 0.1 63
2019-10-05 13:00:00 19.5 7 Sudoeste 16 Sudoeste 0 1006 0.5 67
2019-10-05 12:00:00 17.7 3 Sur 7 Sudoeste 0 1006.1 1.2 75
2019-10-05 11:00:00 15.5 3 Norte 5 Norte 0 1005.9 1.5 89
2019-10-05 10:00:00 13.8 0 Calma 4 Este 0 1005.5 1.6 95
2019-10-05 09:00:00 13.3 0 Calma 4 Nordeste 0 1004.9 0.8 95
2019-10-05 08:00:00 12.9 2 Norte 3 Norte 0 1004.4 0.3 95
2019-10-05 07:00:00 12.8 0 Calma 7 Este 0 1003.9 -0.8 95
2019-10-05 06:00:00 12.6 0 Calma 6 Nordeste 0 1004.1 -1 94
2019-10-05 05:00:00 12.5 0 Calma 11 Este 0 1004.1 -1 93
2019-10-05 04:00:00 12.1 4 Este 13 Nordeste 0 1004.7 -0.4 95
2019-10-05 03:00:00 12.5 8 Nordeste 14 Nordeste 0 1005.1 0.1 93
2019-10-05 02:00:00 12.5 9 Este 13 Este 0 1005.1 0.1 93
2019-10-05 01:00:00 12.7 3 Este 9 Este 0 1005.1 0.2 93
2019-10-05 00:00:00 13.4 6 Este 12 Este 0 1005 0.2 91
2019-10-04 23:00:00 14 5 Este 8 Este 0 1005 0.3 90
2019-10-04 22:00:00 14.7 0 Calma 4 Norte 0 1004.9 0.6 87
2019-10-04 21:00:00 16 3 Sudeste 10 Sur 0 1004.8 0.5 79
2019-10-04 20:00:00 18.1 5 Sur 17 Sudeste 0 1004.7 -0.1 72
2019-10-04 19:00:00 20.3 6 Sudoeste 15 Oeste 0 1004.3 -0.9 65
2019-10-04 18:00:00 20.6 4 Norte 10 Noroeste 0 1004.3 -1.3 66
2019-10-04 17:00:00 19.4 5 Noroeste 16 Noroeste 0 1004.8 -0.8 72
2019-10-04 16:00:00 19.5 8 Noroeste 15 Oeste 0 1005.2 -0.6 75
2019-10-04 15:00:00 19.3 8 Sudoeste 16 Sudoeste 0 1005.6 -0.9 75
2019-10-04 14:00:00 20.9 4 Oeste 13 Oeste 0 1005.6 -0.8 69
2019-10-04 13:00:00 20.4 4 Norte 9 Norte 0 1005.8 -0.3 74
2019-10-04 12:00:00 18.8 2 Nordeste 7 Noroeste 0 1006.5 0.8 81
2019-10-04 11:00:00 17.1 3 Nordeste 9 Nordeste 0 1006.4 1 88
2019-10-04 10:00:00 15.8 6 Nordeste 15 Nordeste 0 1006.1 0.5 95
2019-10-04 09:00:00 15.4 8 Este 15 Nordeste 0 1005.7 0.1 95
2019-10-04 08:00:00 15.6 6 Nordeste 14 Nordeste 0 1005.4 0 95
2019-10-04 07:00:00 15.5 6 Nordeste 12 Norte 0 1005.6 0.3 96
2019-10-04 06:00:00 15.6 6 Nordeste 18 Noroeste 0.6 1005.6 -0.3 97
2019-10-04 05:00:00 16.8 5 Oeste 10 Sudoeste 0 1005.4 -0.7 99
2019-10-04 04:00:00 17 6 Sudoeste 11 Sudoeste 0 1005.3 -1.1 98
2019-10-04 03:00:00 17.1 4 Oeste 7 Sudeste 0.2 1005.9 -0.7 98
2019-10-04 02:00:00 17.1 0 Calma 2 Sudeste 0 1006.1 -0.6 97
2019-10-04 01:00:00 17 0 Calma 3 Nordeste 0.2 1006.4 -0.2 97
2019-10-04 00:00:00 16.9 2 Este 5 Nordeste 0.6 1006.6 0.1 97
2019-10-03 23:00:00 16.9 2 Norte 3 Noroeste 0.8 1006.7 0.3 96
2019-10-03 22:00:00 16.8 0 Calma 3 Nordeste 1.4 1006.6 0.4 96
2019-10-03 21:00:00 16.6 0 Calma 5 Sur 1.4 1006.5 0.4 95
2019-10-03 20:00:00 16.6 4 Sur 15 Sudoeste 0.4 1006.4 0 94
2019-10-03 19:00:00 18.5 7 Sudoeste 11 Sudoeste 0 1006.2 -0.6 84
2019-10-03 18:00:00 19.6 4 Sudoeste 7 Oeste 0 1006.1 -0.9 76
2019-10-03 17:00:00 19.3 3 Sudoeste 9 Sur 0 1006.4 -1.3 77
2019-10-03 16:00:00 19.1 3 Sur 8 Sur 0 1006.8 -1.1 76
2019-10-03 15:00:00 19 3 Sur 12 Sudoeste 0 1007 -1.1 76
2019-10-03 14:00:00 18.2 6 Sur 15 Sudoeste 0 1007.7 -0.1 77
2019-10-03 13:00:00 17.4 6 Sudoeste 11 Sudeste 0 1007.9 0.6 80
2019-10-03 12:00:00 15.6 6 Noroeste 9 Norte 0 1008.1 0.8 85
2019-10-03 11:00:00 13.7 4 Norte 7 Norte 0 1007.8 1 90
2019-10-03 10:00:00 11.7 3 Este 15 Nordeste 0 1007.3 0.6 94
2019-10-03 09:00:00 10.4 8 Nordeste 11 Nordeste 0 1007.3 0.5 96
2019-10-03 08:00:00 10.5 7 Nordeste 15 Nordeste 0 1006.8 0.1 94
2019-10-03 07:00:00 10.7 9 Nordeste 17 Nordeste 0 1006.7 0.3 94
2019-10-03 06:00:00 11.1 10 Nordeste 13 Nordeste 0 1006.8 0.1 93
2019-10-03 05:00:00 11.4 7 Nordeste 16 Este 0 1006.7 0.3 92
2019-10-03 04:00:00 12 7 Este 13 Nordeste 0 1006.4 -0.2 90
2019-10-03 03:00:00 12.3 4 Nordeste 11 Nordeste 0 1006.7 0 90
2019-10-03 02:00:00 12.8 5 Nordeste 10 Este 0 1006.4 -0.8 90
2019-10-03 01:00:00 13.3 3 Nordeste 15 Nordeste 0 1006.6 -0.7 90
2019-10-03 00:00:00 13.7 8 Este 15 Este 0 1006.7 -0.7 90
2019-10-02 23:00:00 14.4 8 Nordeste 13 Nordeste 0 1007.2 -0.1 90
2019-10-02 22:00:00 14.9 0 Calma 3 Sudoeste 0 1007.3 0.1 86
2019-10-02 21:00:00 16.1 2 Sur 9 Sudeste 0 1007.4 0.4 80
2019-10-02 20:00:00 17.9 4 Sur 9 Noroeste 0 1007.3 0 75
2019-10-02 19:00:00 19.8 6 Noroeste 17 Oeste 0 1007.2 -0.4 65
2019-10-02 18:00:00 19.9 8 Sudoeste 17 Sudoeste 0 1007 -0.6 68
2019-10-02 17:00:00 20.4 9 Sudoeste 17 Sudoeste 0 1007.3 -0.8 66
2019-10-02 16:00:00 19.2 8 Sudoeste 17 Oeste 0 1007.6 -0.9 70
2019-10-02 15:00:00 20 6 Oeste 13 Oeste 0 1007.6 -1 58
2019-10-02 14:00:00 18.7 5 Noroeste 15 Noroeste 0 1008.1 -0.5 65
2019-10-02 13:00:00 17.6 6 Noroeste 11 Norte 0 1008.5 0.7 73
2019-10-02 12:00:00 17.3 4 Noroeste 10 Nordeste 0 1008.6 1.5 75
2019-10-02 11:00:00 15.9 3 Norte 11 Norte 0 1008.6 2 92
2019-10-02 10:00:00 14.6 2 Sudeste 8 Este 0 1007.8 1.2 95
2019-10-02 09:00:00 14 6 Este 11 Nordeste 0 1007.1 0.9 94
2019-10-02 08:00:00 14 6 Nordeste 10 Este 0 1006.6 0 93
2019-10-02 07:00:00 13.7 6 Nordeste 9 Nordeste 0 1006.6 -0.5 97
2019-10-02 06:00:00 13.9 2 Noroeste 9 Este 0 1006.2 -0.6 94
2019-10-02 05:00:00 14.4 4 Este 11 Nordeste 0 1006.6 -0.5 95
2019-10-02 04:00:00 14.7 2 Noroeste 5 Norte 0 1007.1 0.1 94
2019-10-02 03:00:00 15 2 Nordeste 8 Este 0 1006.8 0.1 92
2019-10-02 02:00:00 15.6 2 Nordeste 3 Sudoeste 0 1007.1 0.3 91
2019-10-02 01:00:00 15.8 0 Calma 6 Sudeste 0 1007 0.8 89
2019-10-02 00:00:00 16.1 3 Sur 9 Sur 0 1006.7 1.2 86
2019-10-01 23:00:00 16.4 4 Sudeste 10 Sudeste 0 1006.8 1.5 84
2019-10-01 22:00:00 16.9 5 Sudoeste 10 Sudoeste 0 1006.2 1.5 83
2019-10-01 21:00:00 17.2 5 Sudoeste 11 Sudoeste 0 1005.5 1 86
2019-10-01 20:00:00 17.8 9 Oeste 17 Oeste 0 1005.3 1.2 79
2019-10-01 19:00:00 18.4 10 Sudoeste 21 Sudoeste 0 1004.7 0.4 76
2019-10-01 18:00:00 19.9 13 Sudoeste 27 Sudoeste 0 1004.5 0.3 76
2019-10-01 17:00:00 19.3 14 Sudoeste 30 Sudoeste 0 1004.1 -0.1 81
2019-10-01 16:00:00 20.4 9 Sudoeste 26 Sudoeste 0 1004.3 0 74
2019-10-01 15:00:00 19.6 12 Sudoeste 28 Sudoeste 0 1004.2 0 80
2019-10-01 14:00:00 20 11 Sudoeste 22 Sudoeste 0 1004.2 0.5 80
2019-10-01 13:00:00 19.3 13 Sudoeste 27 Sudoeste 0 1004.3 1.3 87
2019-10-01 12:00:00 18.3 10 Sudoeste 22 Sudoeste 0 1004.2 1.9 97
2019-10-01 11:00:00 17.7 5 Sur 14 Sur 0 1003.7 1.6 98
2019-10-01 10:00:00 17.2 8 Sudoeste 15 Sudoeste 0 1003 1.5 99
2019-10-01 09:00:00 17.1 4 Sur 14 Sudoeste 0 1002.3 1 99
2019-10-01 08:00:00 17.1 7 Sudoeste 19 Sudoeste 0 1002.1 1 99
2019-10-01 07:00:00 17.3 11 Sudoeste 26 Sudoeste 0.2 1001.5 0 99
2019-10-01 06:00:00 17 6 Sudoeste 21 Sudoeste 0.8 1001.3 -0.5 98
2019-10-01 05:00:00 17.2 4 Sur 14 Oeste 4 1001.1 -1.2 95
2019-10-01 04:00:00 17.6 4 Sur 13 Sudoeste 0 1001.5 -0.9 90
2019-10-01 03:00:00 17.6 7 Sudeste 14 Sudeste 0 1001.8 -0.7 89
2019-10-01 02:00:00 17.6 4 Sur 12 Sudeste 0 1002.3 -0.2 91
2019-10-01 01:00:00 17.9 5 Sur 10 Sur 0 1002.4 -0.1 91
2019-10-01 00:00:00 18.1 6 Sur 13 Sur 0 1002.5 0.4 86
2019-09-30 23:00:00 18.1 3 Sudoeste 10 Sur 0 1002.5 0.3 94
2019-09-30 22:00:00 18.2 0 Calma 6 Sudeste 0 1002.5 0.1 94
2019-09-30 21:00:00 18.3 4 Sur 9 Sudoeste 0 1002.1 -0.6 93
2019-09-30 20:00:00 19.2 2 Sudoeste 10 Sudeste 0 1002.2 -0.6 89
2019-09-30 19:00:00 19.7 3 Sur 16 Sudoeste 0 1002.4 -0.6 89
2019-09-30 18:00:00 20.1 6 Sudoeste 20 Sudoeste 0 1002.7 -0.8 88
2019-09-30 17:00:00 19.7 9 Sudoeste 18 Sudoeste 0 1002.8 -1.1 93
2019-09-30 16:00:00 19.3 7 Sudoeste 20 Sudoeste 0 1003 -0.8 97
2019-09-30 15:00:00 18.5 11 Sudoeste 24 Sudoeste 0.2 1003.5 -0.4 98
2019-09-30 14:00:00 19.1 8 Sudoeste 21 Sudoeste 0 1003.9 -0.1 95
2019-09-30 13:00:00 19.7 7 Sudoeste 13 Oeste 0 1003.8 0 95
2019-09-30 12:00:00 19.6 6 Sur 14 Sur 0 1003.9 0.3 97
2019-09-30 11:00:00 19 2 Sur 5 Sudoeste 0.2 1004 0.6 99
2019-09-30 10:00:00 18.1 3 Sudoeste 9 Sudoeste 0.2 1003.8 0.4 99
2019-09-30 09:00:00 18.1 4 Sudeste 9 Sur 0.6 1003.6 0 99
2019-09-30 08:00:00 18.1 3 Noroeste 5 Sur 0.2 1003.4 -0.1 98
2019-09-30 07:00:00 18.1 0 Calma 4 Sudeste 0 1003.4 -0.7 98
2019-09-30 06:00:00 18.1 3 Norte 6 Este 0 1003.6 -1.1 98
2019-09-30 05:00:00 18.1 0 Calma 5 Norte 0 1003.5 -1.4 98
2019-09-30 04:00:00 18 4 Norte 5 Norte 0.2 1004.1 -1.1 98
2019-09-30 03:00:00 18.1 3 Nordeste 4 Nordeste 0.4 1004.7 -0.9 98
2019-09-30 02:00:00 18.1 0 Calma 3 Sur 0.8 1004.9 -0.8 98
2019-09-30 01:00:00 18.1 2 Sudeste 4 Sudeste 0.8 1005.2 -0.4 98
2019-09-30 00:00:00 18.1 0 Calma 0 Calma 1.4 1005.6 0.5 98
2019-09-29 23:00:00 18 0 Calma 3 Oeste 0.8 1005.7 0.8 99
2019-09-29 22:00:00 17.9 0 Calma 8 Sudoeste 1.2 1005.6 0.8 99
2019-09-29 21:00:00 18 3 Sur 11 Sudoeste 2.2 1005.1 0.4 98
2019-09-29 20:00:00 18.1 5 Sudoeste 12 Sudoeste 2 1004.9 0 98
2019-09-29 19:00:00 18.3 4 Sur 10 Sudoeste 1.2 1004.8 -0.4 98
2019-09-29 18:00:00 18.2 4 Sudoeste 9 Sudoeste 1.4 1004.7 -0.7 98
2019-09-29 17:00:00 18.4 5 Sudoeste 9 Sudoeste 2.2 1004.9 -0.7 97
2019-09-29 16:00:00 18.2 4 Sudoeste 11 Sudeste 3.8 1005.2 -0.4 97
2019-09-29 15:00:00 18.1 3 Sur 12 Sur 2.2 1005.4 -0.3 97
2019-09-29 14:00:00 17.8 6 Sur 13 Sur 1.4 1005.6 0.3 96
2019-09-29 13:00:00 17.3 4 Sur 13 Sur 0.8 1005.6 0.8 96
2019-09-29 12:00:00 16.4 7 Sur 13 Sur 0.4 1005.7 1 95
2019-09-29 11:00:00 15.5 4 Noroeste 10 Nordeste 0 1005.3 0.6 96
2019-09-29 10:00:00 14.7 4 Sur 11 Sudeste 0 1004.8 0.3 98
2019-09-29 09:00:00 13.9 2 Sudoeste 9 Nordeste 0 1004.7 0 97
2019-09-29 08:00:00 13.5 5 Nordeste 9 Norte 0.4 1004.7 -0.3 96
2019-09-29 07:00:00 13.3 4 Norte 6 Noroeste 0 1004.5 -0.8 92
2019-09-29 06:00:00 13.2 3 Norte 10 Nordeste 0 1004.7 -1.1 90
2019-09-29 05:00:00 12.8 4 Nordeste 8 Sudeste 0 1005 -1.1 91
2019-09-29 04:00:00 12.3 6 Sudeste 11 Sudeste 0 1005.3 -1 92
2019-09-29 03:00:00 12.2 2 Sudeste 13 Nordeste 0 1005.8 -0.4 91
2019-09-29 02:00:00 12 5 Este 13 Nordeste 0 1006.1 -0.1 90
2019-09-29 01:00:00 12.6 8 Nordeste 12 Nordeste 0 1006.3 0.3 91
2019-09-29 00:00:00 12.7 3 Nordeste 12 Este 0 1006.2 0.5 89
2019-09-28 23:00:00 13.1 2 Sudeste 8 Este 0 1006.2 0.8 87
2019-09-28 22:00:00 14.2 2 Sudeste 7 Sudeste 0 1006 0.4 83
2019-09-28 21:00:00 15.2 3 Sur 16 Sudoeste 0 1005.7 0.1 80
2019-09-28 20:00:00 17.4 10 Sudoeste 15 Sudoeste 0 1005.4 -0.5 70
2019-09-28 19:00:00 18.8 9 Sudoeste 19 Sudoeste 0 1005.6 -0.6 64
2019-09-28 18:00:00 19.9 12 Sudoeste 21 Sudoeste 0 1005.6 -0.8 61
2019-09-28 17:00:00 20.7 10 Sudoeste 22 Sudoeste 0 1005.9 -1.4 63
2019-09-28 16:00:00 20.2 10 Oeste 19 Sudoeste 0 1006.2 -1.6 61
2019-09-28 15:00:00 20.1 8 Sudoeste 17 Sudoeste 0 1006.4 -1.9 60
2019-09-28 14:00:00 19.8 6 Sudoeste 14 Sudoeste 0 1007.3 -1.2 61
2019-09-28 13:00:00 18.6 5 Oeste 10 Oeste 0 1007.8 -0.3 60
2019-09-28 12:00:00 16.7 3 Oeste 9 Norte 0 1008.3 0.7 75
2019-09-28 11:00:00 14.5 6 Nordeste 9 Este 0 1008.5 1.3 80
2019-09-28 10:00:00 11 0 Calma 18 Este 0 1008.1 0.6 89
2019-09-28 09:00:00 10.1 9 Este 19 Nordeste 0 1007.6 -0.3 92
2019-09-28 08:00:00 10.4 13 Nordeste 20 Nordeste 0 1007.2 -0.7 91
2019-09-28 07:00:00 10.5 10 Este 18 Este 0 1007.5 -0.7 92
2019-09-28 06:00:00 10.9 11 Este 16 Nordeste 0 1007.9 -0.5 92
2019-09-28 05:00:00 11.5 11 Este 19 Este 0 1007.9 -0.8 92
2019-09-28 04:00:00 11.6 11 Este 18 Este 0 1008.2 -0.6 93
2019-09-28 03:00:00 12.2 11 Este 17 Este 0 1008.4 -0.3 93
2019-09-28 02:00:00 12.9 11 Nordeste 16 Nordeste 0 1008.7 0 93
2019-09-28 01:00:00 13.4 9 Nordeste 14 Nordeste 0 1008.8 0.3 93
2019-09-28 00:00:00 14 9 Este 16 Este 0 1008.7 0.5 93
2019-09-27 23:00:00 14.7 3 Sudeste 8 Este 0 1008.7 0.7 90
2019-09-27 22:00:00 15.4 4 Nordeste 5 Este 0 1008.5 0.7 90
2019-09-27 21:00:00 16.2 4 Sudeste 8 Sudoeste 0 1008.2 0.4 86
2019-09-27 20:00:00 18.5 4 Sudoeste 15 Sudoeste 0 1008 0.1 76
2019-09-27 19:00:00 19.8 9 Sudoeste 17 Sudoeste 0 1007.8 0 73
2019-09-27 18:00:00 19.6 9 Sudoeste 19 Oeste 0 1007.8 -0.1 76
2019-09-27 17:00:00 19 10 Sudoeste 18 Sudoeste 0 1007.9 -0.3 83
2019-09-27 16:00:00 19.4 14 Sudoeste 22 Sudoeste 0 1007.8 -0.4 82
2019-09-27 15:00:00 18.7 8 Sudoeste 19 Sudoeste 0 1007.9 -0.1 91
2019-09-27 14:00:00 17.8 12 Sudoeste 20 Sudoeste 0 1008.2 0.7 96
2019-09-27 13:00:00 16.5 2 Sur 5 Norte 0.4 1008.2 1.2 98
2019-09-27 12:00:00 15.7 0 Calma 7 Noroeste 2 1008 1.3 98
2019-09-27 11:00:00 15.4 4 Este 7 Norte 2.2 1007.5 1.1 98
2019-09-27 10:00:00 15 3 Norte 7 Norte 2.6 1007 0.6 97
2019-09-27 09:00:00 14.9 4 Nordeste 7 Norte 2.4 1006.7 0.4 97
2019-09-27 08:00:00 15.1 3 Norte 9 Norte 1.4 1006.4 -0.3 95
2019-09-27 07:00:00 15.8 3 Norte 6 Norte 0.4 1006.4 -0.6 89
2019-09-27 06:00:00 16.2 5 Este 9 Sudeste 0 1006.3 -1.2 85
2019-09-27 05:00:00 16.4 2 Oeste 13 Sudeste 0 1006.7 -1 83
2019-09-27 04:00:00 16.6 8 Sudeste 18 Sudeste 0 1007 -1.1 81
2019-09-27 03:00:00 16.2 3 Sudeste 9 Sudeste 0 1007.5 -0.6 83
2019-09-27 02:00:00 16.7 2 Nordeste 7 Sudeste 0 1007.7 -0.1 86
2019-09-27 01:00:00 16.9 0 Calma 7 Sur 0 1008.1 0.3 86
2019-09-27 00:00:00 16.9 3 Sudeste 5 Sudeste 0 1008.1 0.6 84
2019-09-26 23:00:00 16.9 0 Calma 6 Sudeste 0 1007.8 0.6 82
2019-09-26 22:00:00 17.4 0 Calma 8 Sudoeste 0 1007.8 0.7 79
2019-09-26 21:00:00 17.8 3 Sudoeste 16 Sudoeste 0 1007.5 0.6 76
2019-09-26 20:00:00 18.3 8 Sudoeste 19 Sudoeste 0 1007.2 0 74
2019-09-26 19:00:00 18.8 8 Oeste 21 Sudoeste 0 1007.1 -0.2 70
2019-09-26 18:00:00 20.5 11 Oeste 26 Sudoeste 0 1006.9 -0.2 64
2019-09-26 17:00:00 21.1 12 Sudoeste 26 Sudoeste 0 1007.2 0.1 60
2019-09-26 16:00:00 20.8 16 Sudoeste 30 Sudoeste 0 1007.3 -0.4 61
2019-09-26 15:00:00 21 14 Sudoeste 27 Sudoeste 0 1007.1 -0.6 61
2019-09-26 14:00:00 20.2 10 Sudoeste 20 Sudoeste 0 1007.1 -0.2 61
2019-09-26 13:00:00 18.5 11 Sudoeste 22 Sudoeste 0 1007.7 1.1 77
2019-09-26 12:00:00 18.9 8 Sudoeste 17 Sudoeste 0 1007.7 1.4 76
2019-09-26 11:00:00 18 2 Sur 9 Sur 0 1007.3 1.3 84
2019-09-26 10:00:00 16 2 Noroeste 8 Este 0 1006.6 0.7 93
2019-09-26 09:00:00 15 2 Sudeste 3 Este 0 1006.3 0.2 95
2019-09-26 08:00:00 15 3 Norte 5 Norte 0 1006 -0.3 94
2019-09-26 07:00:00 15.3 0 Calma 7 Nordeste 0 1005.9 -0.6 94
2019-09-26 06:00:00 15.6 4 Sudeste 7 Sudeste 0 1006.1 -0.6 93
2019-09-26 05:00:00 15.8 2 Sur 8 Sur 0 1006.3 -0.6 93
2019-09-26 04:00:00 15.8 5 Sur 12 Sudeste 0 1006.5 -0.7 92
2019-09-26 03:00:00 16 4 Sur 12 Sur 0 1006.7 -0.7 91
2019-09-26 02:00:00 16.3 6 Sur 13 Sur 0 1006.9 -0.3 91
2019-09-26 01:00:00 16.5 4 Sur 10 Sudeste 0 1007.2 0.3 89
2019-09-26 00:00:00 16.5 0 Calma 8 Sur 0 1007.4 0.7 89
2019-09-25 23:00:00 16.5 3 Sur 7 Sur 0 1007.2 0.7 88
2019-09-25 22:00:00 16.7 2 Sur 14 Sudoeste 0 1006.9 0.3 90
2019-09-25 21:00:00 16.9 9 Sudoeste 18 Sudoeste 0 1006.7 0 90
2019-09-25 20:00:00 17.5 8 Sudoeste 25 Sudoeste 0 1006.5 -0.3 83
2019-09-25 19:00:00 17.8 13 Sudoeste 25 Sudoeste 0 1006.6 -0.5 82
2019-09-25 18:00:00 19.4 13 Sudoeste 28 Sudoeste 0 1006.7 -0.6 73
2019-09-25 17:00:00 19.8 13 Sudoeste 24 Sudoeste 0 1006.8 -0.9 72
2019-09-25 16:00:00 20 13 Sudoeste 24 Sudoeste 0 1007.1 -0.8 67
2019-09-25 15:00:00 19.9 12 Sudoeste 27 Sudoeste 0 1007.3 -0.7 69
2019-09-25 14:00:00 19.8 11 Sudoeste 23 Sudoeste 0 1007.7 0 71
2019-09-25 13:00:00 18.4 9 Sudoeste 17 Sudoeste 0 1007.9 0.6 83
2019-09-25 12:00:00 17.8 5 Sudoeste 11 Oeste 0 1008 1.1 86
2019-09-25 11:00:00 17.1 5 Sur 9 Sudoeste 0 1007.7 1.2 86
2019-09-25 10:00:00 15.3 0 Calma 8 Sudeste 0 1007.3 1 96
2019-09-25 09:00:00 15 5 Sudeste 7 Sudeste 0 1006.9 0.6 97
2019-09-25 08:00:00 15.1 4 Sur 9 Sur 0.4 1006.5 0.1 98
2019-09-25 07:00:00 15.1 3 Noroeste 5 Oeste 0.2 1006.3 -0.5 97
2019-09-25 06:00:00 15 2 Oeste 8 Sudeste 0 1006.3 -0.7 97
2019-09-25 05:00:00 14.7 3 Sudeste 5 Este 0 1006.4 -0.5 97
2019-09-25 04:00:00 14.8 3 Este 6 Oeste 0.4 1006.8 -0.5 96
2019-09-25 03:00:00 15.1 0 Calma 9 Sur 0 1007 -0.3 96
2019-09-25 02:00:00 15.2 3 Sudoeste 8 Sur 0 1006.9 -0.3 94
2019-09-25 01:00:00 15.5 3 Sur 6 Sur 0 1007.3 0.4 94
2019-09-25 00:00:00 15.5 2 Sudeste 7 Sudoeste 0 1007.3 0.9 94
2019-09-24 23:00:00 15.3 4 Sur 9 Sur 0 1007.2 1.1 93
2019-09-24 22:00:00 15.8 5 Sur 14 Sudoeste 0 1006.9 1.1 90
2019-09-24 21:00:00 16.9 8 Sudoeste 14 Sudoeste 0 1006.4 0.9 88
2019-09-24 20:00:00 17.4 10 Sudoeste 19 Sudoeste 0 1006.1 0.6 83
2019-09-24 19:00:00 19.2 10 Sudoeste 23 Sudoeste 0 1005.8 0.4 73
2019-09-24 18:00:00 19.1 10 Sudoeste 23 Sudoeste 0 1005.5 0.2 71
2019-09-24 17:00:00 19.2 8 Sur 24 Sudoeste 0 1005.5 0.2 81
2019-09-24 16:00:00 19.6 12 Sudoeste 26 Sudoeste 0 1005.4 0.2 80
2019-09-24 15:00:00 18.7 16 Sudoeste 31 Sudoeste 0 1005.3 0.3 90
2019-09-24 14:00:00 18.5 13 Sudoeste 25 Sudoeste 0 1005.3 0.8 92
2019-09-24 13:00:00 17.9 15 Sudoeste 26 Sudoeste 0 1005.2 1.5 95
2019-09-24 12:00:00 18 15 Sudoeste 28 Sudoeste 0 1005 1.9 97
2019-09-24 11:00:00 17.8 8 Sudoeste 20 Sudoeste 0 1004.5 1.8 98
2019-09-24 10:00:00 17.3 7 Sudoeste 19 Sudoeste 0 1003.7 1.5 99
2019-09-24 09:00:00 17.3 11 Sudoeste 24 Sudoeste 0 1003.1 1.3 98
2019-09-24 08:00:00 17.6 15 Sudoeste 28 Sudoeste 0.6 1002.7 1.3 98
2019-09-24 07:00:00 18.2 15 Sudoeste 36 Sudoeste 0 1002.2 0.4 96
2019-09-24 06:00:00 18.6 14 Sur 40 Sur 0.4 1001.8 0 96
2019-09-24 05:00:00 18.1 23 Sur 45 Sur 4.6 1001.4 -1 97
2019-09-24 04:00:00 17.4 15 Sur 35 Sur 10.8 1001.8 -1.1 98
2019-09-24 03:00:00 17.1 18 Sur 42 Sudeste 8.2 1001.8 -1.5 96
2019-09-24 02:00:00 17.1 16 Sur 44 Sudeste 0.4 1002.4 -1.6 94
2019-09-24 01:00:00 17.5 18 Sudeste 47 Sur 0 1002.9 -1.2 89
2019-09-24 00:00:00 17.8 21 Sudeste 49 Sur 0 1003.3 -0.6 85
2019-09-23 23:00:00 17.3 8 Sur 24 Sudeste 0 1004 -0.3 89
2019-09-23 22:00:00 17.4 8 Sur 32 Sur 0 1004.1 -0.1 88
2019-09-23 21:00:00 18.5 11 Sur 31 Sur 0 1003.9 -0.8 79
2019-09-23 20:00:00 18.7 8 Sur 32 Sur 0 1004.3 -0.3 76
2019-09-23 19:00:00 18.8 14 Sur 32 Sur 0 1004.2 -0.4 74
2019-09-23 18:00:00 19.1 18 Sur 41 Sur 0 1004.7 -0.1 74
2019-09-23 17:00:00 19.7 17 Sur 36 Sur 0 1004.6 -0.5 69
2019-09-23 16:00:00 19.9 15 Sur 36 Sur 0 1004.6 -0.7 71
2019-09-23 15:00:00 19.2 12 Sur 37 Sur 0 1004.8 -0.6 76
2019-09-23 14:00:00 19 14 Sur 35 Sur 0 1005.1 -0.3 74
2019-09-23 13:00:00 18.9 10 Sur 32 Sur 0 1005.3 0.4 75
2019-09-23 12:00:00 17.9 11 Sur 32 Sudeste 0 1005.4 0.5 78
2019-09-23 11:00:00 17.1 12 Sudeste 29 Sudeste 0 1005.4 1 80
2019-09-23 10:00:00 16.3 10 Sur 21 Sudeste 0 1004.9 0.9 84
2019-09-23 09:00:00 15.7 9 Sudeste 21 Sudeste 0 1004.9 0.3 85
2019-09-23 08:00:00 15.6 6 Sur 23 Sudeste 0 1004.4 -0.2 86
2019-09-23 07:00:00 15.8 9 Sudeste 21 Sudeste 0 1004 -0.7 84
2019-09-23 06:00:00 15.6 10 Sur 19 Sudeste 0 1004.6 -0.3 86
2019-09-23 05:00:00 15.5 3 Sur 17 Sur 0 1004.6 0 87
2019-09-23 04:00:00 15.5 8 Sudeste 17 Sudeste 0 1004.7 0 87
2019-09-23 03:00:00 15.4 8 Sur 18 Sur 0 1004.9 0.5 88
2019-09-23 02:00:00 15.3 7 Sur 14 Sudeste 0 1004.6 -0.2 89
2019-09-23 01:00:00 15 6 Sur 13 Sur 0 1004.7 0.4 89
2019-09-23 00:00:00 15.5 3 Sur 12 Sudeste 0 1004.4 0.7 87
2019-09-22 23:00:00 15.7 3 Sur 9 Sur 0 1004.8 1.2 86
2019-09-22 22:00:00 15.5 4 Sur 9 Sur 0 1004.3 1.2 87
2019-09-22 21:00:00 16.1 5 Sudeste 21 Sudoeste 0 1003.7 0.9 84
2019-09-22 20:00:00 17.4 15 Sudoeste 28 Sudoeste 0 1003.6 1.1 82
2019-09-22 19:00:00 18.9 14 Sudoeste 32 Sudoeste 0 1003.1 0.9 75
2019-09-22 18:00:00 19.6 16 Sudoeste 37 Sudoeste 0 1002.8 0.7 73
2019-09-22 17:00:00 20 16 Sudoeste 33 Sudoeste 0 1002.5 0.4 72
2019-09-22 16:00:00 19.9 17 Sudoeste 36 Sudoeste 0 1002.2 0.3 71
2019-09-22 15:00:00 19.5 17 Sudoeste 35 Sudoeste 0 1002.1 0.6 73
2019-09-22 14:00:00 19.4 16 Sudoeste 29 Sudoeste 0 1002.1 1.2 74
2019-09-22 13:00:00 17.6 15 Sudoeste 29 Sudoeste 0 1001.9 1.7 82
2019-09-22 12:00:00 18.1 14 Sudoeste 31 Sudoeste 0.2 1001.5 2.3 80
2019-09-22 11:00:00 17.7 9 Sur 19 Sur 0 1000.9 2.1 83
2019-09-22 10:00:00 15.6 5 Sur 15 Sudeste 0 1000.2 1.9 91
2019-09-22 09:00:00 14.6 2 Sudoeste 19 Sur 0 999.2 1.3 92
2019-09-22 08:00:00 14.8 10 Sur 18 Sur 0 998.8 1.3 90
2019-09-22 07:00:00 14.3 4 Sudoeste 16 Sur 0 998.3 1 92
2019-09-22 06:00:00 14.9 8 Sur 23 Sur 0 997.9 1.1 87
2019-09-22 05:00:00 15.1 10 Sur 19 Sur 0 997.5 1.2 88
2019-09-22 04:00:00 15.4 10 Sur 28 Sur 0 997.3 1.4 88
2019-09-22 03:00:00 15.6 9 Sur 23 Sudeste 0 996.8 1.2 91
2019-09-22 02:00:00 15.6 8 Sur 28 Sudoeste 0 996.3 1.1 93
2019-09-22 01:00:00 16.1 13 Sur 31 Sur 0.4 995.9 1.1 90
2019-09-22 00:00:00 16.4 12 Sur 30 Sur 0.8 995.6 1.5 91
2019-09-21 23:00:00 16.6 11 Sur 26 Sur 0 995.2 1.3 86
2019-09-21 22:00:00 16.6 12 Sur 28 Sur 0 994.8 1.3 87
2019-09-21 21:00:00 16.5 11 Sur 26 Sur 0 994.1 1 87
2019-09-21 20:00:00 16.9 12 Sur 23 Sur 0 993.9 1.5 87
2019-09-21 19:00:00 17.2 13 Sudoeste 24 Sudoeste 0 993.5 1.2 91
2019-09-21 18:00:00 15.7 6 Sudoeste 19 Sudoeste 0.8 993.1 0.7 99
2019-09-21 17:00:00 15 7 Sudoeste 29 Sudoeste 1.2 992.4 -0.1 98
2019-09-21 16:00:00 16 18 Sudoeste 37 Sudoeste 3.6 992.3 -0.6 98
2019-09-21 15:00:00 17.5 16 Sur 36 Sur 2.6 992.4 -0.7 96
2019-09-21 14:00:00 17.9 13 Sur 31 Sur 2 992.5 -0.5 96
2019-09-21 13:00:00 17.9 7 Sudoeste 34 Sur 2.4 992.9 -0.2 96
2019-09-21 12:00:00 17.9 5 Sudoeste 29 Sur 2.2 993.1 0.3 97
2019-09-21 11:00:00 17.6 3 Sur 22 Sur 1 993 0.4 96
2019-09-21 10:00:00 17.2 13 Sur 31 Sur 1.6 993.1 0.4 96
2019-09-21 09:00:00 17.3 9 Sur 26 Sur 1.2 992.8 0.1 94
2019-09-21 08:00:00 17.6 7 Sur 25 Sur 0.2 992.6 -1.1 90
2019-09-21 07:00:00 18.3 9 Sur 33 Sudeste 0 992.7 -2.2 82
2019-09-21 06:00:00 18.4 6 Sur 28 Sudeste 0 992.7 -3 80
2019-09-21 05:00:00 17.9 5 Sudeste 19 Sudeste 0 993.7 -2.4 81
2019-09-21 04:00:00 17.3 3 Sur 14 Sur 0 994.9 -1.4 84
2019-09-21 03:00:00 17.1 4 Sur 13 Sur 0 995.7 -0.9 85
2019-09-21 02:00:00 16.8 7 Sudeste 14 Sudeste 0 996.1 -1 87
2019-09-21 01:00:00 16 7 Sudeste 16 Sudeste 0 996.3 -1.2 91
2019-09-21 00:00:00 15.7 4 Sur 14 Este 0 996.6 -0.9 92
2019-09-20 23:00:00 16 7 Nordeste 10 Nordeste 0 997.1 -0.8 93
2019-09-20 22:00:00 16.1 5 Este 9 Este 0 997.5 -0.4 92
2019-09-20 21:00:00 17 0 Calma 11 Oeste 0 997.5 -0.5 87
2019-09-20 20:00:00 18.2 6 Sudoeste 17 Sudoeste 0 997.9 -0.4 83
2019-09-20 19:00:00 18.5 13 Sudoeste 24 Sudoeste 0 997.9 -1 81
2019-09-20 18:00:00 18.8 11 Sudoeste 23 Sudoeste 0 998 -1.4 81
2019-09-20 17:00:00 19.7 8 Sudoeste 17 Sudoeste 0 998.3 -1.5 78
2019-09-20 16:00:00 20.5 6 Sudoeste 15 Sur 0 998.9 -1.4 74
2019-09-20 15:00:00 19.3 6 Sur 14 Sur 0 999.4 -0.8 79
2019-09-20 14:00:00 17.8 3 Sur 12 Sudoeste 0 999.8 -0.2 87
2019-09-20 13:00:00 16.9 8 Sudoeste 16 Oeste 0 1000.3 0.8 89
2019-09-20 12:00:00 16.9 3 Sudoeste 8 Sudoeste 0 1000.2 0.8 91
2019-09-20 11:00:00 16.4 3 Sur 7 Oeste 0 1000 0.5 94
2019-09-20 10:00:00 15.7 4 Norte 7 Norte 0 999.5 -0.4 98
2019-09-20 09:00:00 15.1 3 Nordeste 5 Noroeste 0 999.4 -0.7 98
2019-09-20 08:00:00 15 4 Noroeste 5 Noroeste 0.2 999.5 -0.9 98
2019-09-20 07:00:00 14.9 3 Sudoeste 10 Oeste 0 999.9 -0.9 98
2019-09-20 06:00:00 15 3 Sudoeste 8 Sudoeste 0 1000.1 -1.2 98
2019-09-20 05:00:00 15.2 3 Sudoeste 7 Sudoeste 0 1000.4 -1.2 97
2019-09-20 04:00:00 15.4 2 Sudoeste 5 Sudoeste 0 1000.8 -1.2 97
2019-09-20 03:00:00 15.4 2 Oeste 4 Oeste 0 1001.3 -1 96
2019-09-20 02:00:00 15.4 0 Calma 5 Sudoeste 0 1001.6 -1 96
2019-09-20 01:00:00 15.4 3 Sudoeste 7 Sudoeste 0 1002 0 95
2019-09-20 00:00:00 15.4 4 Sur 6 Nordeste 0 1002.3 0.1 95
2019-09-19 23:00:00 15.4 4 Oeste 10 Sudoeste 0 1002.6 0.7 95
2019-09-19 22:00:00 15.4 3 Nordeste 11 Sudoeste 0 1002 -0.2 95
2019-09-19 21:00:00 15.2 5 Sudoeste 20 Sudoeste 0 1002.2 0.1 95
2019-09-19 20:00:00 15.6 11 Sudoeste 21 Sudoeste 0 1001.9 0 93
2019-09-19 19:00:00 15.9 9 Sudoeste 23 Sudoeste 0 1002.2 0 91
2019-09-19 18:00:00 16.5 14 Sudoeste 26 Sudoeste 0 1002.1 -0.5 88
2019-09-19 17:00:00 19.3 12 Sudoeste 21 Sudoeste 0 1001.9 -1.5 76
2019-09-19 16:00:00 20.8 9 Sudoeste 19 Sudoeste 0 1002.2 -1.5 73
2019-09-19 15:00:00 20.6 7 Sudoeste 11 Sudoeste 0 1002.6 -1.3 75
2019-09-19 14:00:00 17.7 4 Sudoeste 11 Sudoeste 0 1003.4 -0.3 85
2019-09-19 13:00:00 16.1 5 Sudoeste 9 Sudoeste 0 1003.7 0.5 93
2019-09-19 12:00:00 15.3 3 Oeste 8 Noroeste 0 1003.9 1 96
2019-09-19 11:00:00 14.5 4 Oeste 6 Sudoeste 0 1003.7 1 98
2019-09-19 10:00:00 14 4 Noroeste 7 Este 0 1003.2 0.4 98
2019-09-19 09:00:00 13.9 4 Nordeste 6 Nordeste 0 1002.9 -0.1 98
2019-09-19 08:00:00 14 3 Este 5 Este 0 1002.7 -0.6 98
2019-09-19 07:00:00 14.2 3 Nordeste 6 Este 0 1002.8 -0.5 98
2019-09-19 06:00:00 14.2 3 Nordeste 8 Nordeste 0 1003 -0.3 98
2019-09-19 05:00:00 14.5 4 Oeste 8 Oeste 0 1003.3 0 98
2019-09-19 04:00:00 14.4 3 Sur 5 Sur 0 1003.3 -0.1 97
2019-09-19 03:00:00 14.4 2 Este 6 Nordeste 0 1003.3 -0.2 96
2019-09-19 02:00:00 14.9 4 Norte 7 Noroeste 0 1003.3 -0.3 97
2019-09-19 01:00:00 15 0 Calma 4 Noroeste 0 1003.4 -0.1 96
2019-09-19 00:00:00 15 2 Sudoeste 5 Sudoeste 0 1003.5 0.2 96
2019-09-18 23:00:00 15 3 Sudoeste 8 Sudoeste 0 1003.6 0.5 96
2019-09-18 22:00:00 15.4 5 Sudoeste 8 Sudoeste 0 1003.5 0.7 94
2019-09-18 21:00:00 15.9 3 Sur 8 Sudoeste 0 1003.3 1 91
2019-09-18 20:00:00 16.3 6 Sudoeste 18 Sudoeste 0 1003.1 0.7 89
2019-09-18 19:00:00 18.6 9 Sur 26 Sudoeste 0 1002.8 0.5 79
2019-09-18 18:00:00 21.3 12 Sudoeste 23 Sudoeste 0 1002.3 -0.3 69
2019-09-18 17:00:00 21.6 11 Sudoeste 19 Sudoeste 0 1002.4 -0.6 68
2019-09-18 16:00:00 23.7 9 Sur 18 Sudoeste 0 1002.3 -0.8 63
2019-09-18 15:00:00 23.4 8 Sur 16 Sudoeste 0 1002.6 -0.5 65
2019-09-18 14:00:00 23.1 8 Sudoeste 13 Sudoeste 0 1003 0.1 65
2019-09-18 13:00:00 22.1 5 Sudoeste 10 Sudoeste 0 1003.1 0.4 69
2019-09-18 12:00:00 21.2 5 Sudoeste 10 Sudoeste 0 1003.1 0.7 69
2019-09-18 11:00:00 18.4 3 Sudoeste 9 Norte 0 1002.9 1.1 84
2019-09-18 10:00:00 16.3 5 Nordeste 8 Este 0 1002.7 1.2 90
2019-09-18 09:00:00 15.1 3 Sudeste 5 Sudeste 0 1002.4 1 94
2019-09-18 08:00:00 15 4 Este 7 Nordeste 0 1001.8 0.4 93
2019-09-18 07:00:00 15.2 3 Sur 6 Sudeste 0 1001.5 -0.2 96
2019-09-18 06:00:00 15.3 4 Nordeste 10 Norte 0 1001.4 -0.7 96
2019-09-18 05:00:00 15.3 0 Calma 7 Norte 0 1001.4 -0.6 97
2019-09-18 04:00:00 15.6 3 Nordeste 10 Nordeste 0 1001.7 -0.2 97
2019-09-18 03:00:00 15.6 3 Nordeste 8 Nordeste 0 1002.1 0.2 96
2019-09-18 02:00:00 15.6 3 Oeste 12 Sudoeste 0 1002 0.1 95
2019-09-18 01:00:00 16.5 4 Sur 6 Sur 0 1001.9 0.1 92
2019-09-18 00:00:00 17.2 4 Sur 10 Nordeste 0 1001.9 0.5 90
2019-09-17 23:00:00 17.4 5 Norte 10 Sudoeste 0 1001.9 0.1 89
2019-09-17 22:00:00 18.1 5 Sur 8 Sur 0 1001.8 -0.1 86
2019-09-17 21:00:00 18.4 3 Este 11 Sudoeste 0 1001.4 -0.3 85